createdAt,value
2018-05-17T00:01:48.724Z,9.50
2018-05-17T00:04:16.975Z,9.30
2018-05-17T00:06:45.231Z,9.07
2018-05-17T00:09:13.483Z,9.27
2018-05-17T00:11:41.743Z,10.00
2018-05-17T00:14:09.995Z,9.03
2018-05-17T00:16:38.251Z,9.07
2018-05-17T00:19:06.511Z,9.50
2018-05-17T00:21:34.780Z,9.47
2018-05-17T00:24:03.044Z,9.60
2018-05-17T00:26:31.311Z,9.30
2018-05-17T00:28:59.562Z,9.23
2018-05-17T00:31:27.818Z,8.87
2018-05-17T00:33:56.831Z,9.80
2018-05-17T00:36:25.075Z,10.80
2018-05-17T00:38:53.340Z,12.00
2018-05-17T00:41:21.587Z,11.40
2018-05-17T00:43:49.851Z,12.00
2018-05-17T00:46:18.108Z,13.77
2018-05-17T00:48:46.386Z,12.30
2018-05-17T00:51:14.640Z,13.87
2018-05-17T00:53:42.901Z,12.70
2018-05-17T00:56:11.153Z,12.87
2018-05-17T00:58:40.198Z,13.07
2018-05-17T01:01:08.443Z,13.77
2018-05-17T01:03:36.702Z,13.70
2018-05-17T01:06:05.724Z,13.57
2018-05-17T01:08:33.991Z,14.83
2018-05-17T01:11:02.246Z,16.00
2018-05-17T01:13:30.521Z,12.30
2018-05-17T01:15:58.771Z,11.50
2018-05-17T01:18:27.031Z,11.90
2018-05-17T01:20:55.290Z,12.83
2018-05-17T01:23:23.558Z,12.67
2018-05-17T01:25:52.580Z,13.47
2018-05-17T01:28:20.851Z,13.33
2018-05-17T01:30:49.871Z,11.60
2018-05-17T01:33:18.140Z,12.40
2018-05-17T01:35:46.394Z,12.27
2018-05-17T01:38:27.210Z,11.82
2018-05-17T01:40:55.477Z,11.80
2018-05-17T01:43:23.739Z,13.17
2018-05-17T01:45:52.762Z,12.70
2018-05-17T01:48:21.033Z,13.03
2018-05-17T01:50:49.295Z,13.97
2018-05-17T01:53:18.432Z,12.98
2018-05-17T01:55:46.677Z,13.25
2018-05-17T01:58:14.943Z,13.45
2018-05-17T02:00:43.958Z,13.30
2018-05-17T02:03:12.227Z,14.30
2018-05-17T02:05:41.255Z,14.55
2018-05-17T02:08:09.507Z,15.67
2018-05-17T02:10:38.525Z,15.07
2018-05-17T02:13:06.791Z,15.85
2018-05-17T02:15:35.813Z,15.25
2018-05-17T02:18:04.087Z,15.67
2018-05-17T02:20:32.349Z,15.50
2018-05-17T02:23:01.371Z,15.80
2018-05-17T02:25:31.179Z,15.37
2018-05-17T02:27:59.447Z,16.10
2018-05-17T02:30:27.701Z,16.03
2018-05-17T02:32:55.974Z,15.50
2018-05-17T02:35:24.225Z,16.43
2018-05-17T02:37:52.481Z,17.33
2018-05-17T02:40:20.751Z,16.23
2018-05-17T02:42:49.003Z,16.90
2018-05-17T02:45:17.276Z,17.07
2018-05-17T02:47:45.526Z,17.10
2018-05-17T02:50:13.794Z,17.98
2018-05-17T02:52:42.050Z,17.83
2018-05-17T02:55:10.322Z,17.83
2018-05-17T02:57:39.332Z,16.73
2018-05-17T03:00:07.596Z,19.33
2018-05-17T03:02:36.622Z,17.03
2018-05-17T03:05:04.883Z,17.13
2018-05-17T03:07:33.139Z,17.93
2018-05-17T03:10:01.406Z,16.57
2018-05-17T03:12:29.676Z,16.57
2018-05-17T03:14:57.943Z,17.40
2018-05-17T03:17:26.196Z,16.40
2018-05-17T03:19:54.459Z,15.90
2018-05-17T03:22:23.479Z,14.93
2018-05-17T03:24:51.753Z,15.67
2018-05-17T03:27:20.968Z,15.82
2018-05-17T03:29:49.231Z,15.80
2018-05-17T03:32:17.482Z,15.53
2018-05-17T03:34:45.755Z,15.53
2018-05-17T03:37:14.006Z,15.43
2018-05-17T03:39:42.274Z,15.60
2018-05-17T03:42:10.527Z,15.70
2018-05-17T03:44:38.795Z,14.60
2018-05-17T03:47:07.832Z,13.77
2018-05-17T03:49:36.092Z,15.27
2018-05-17T03:52:04.343Z,14.80
2018-05-17T03:54:32.614Z,14.07
2018-05-17T03:57:00.864Z,13.90
2018-05-17T03:59:29.135Z,13.23
2018-05-17T04:02:14.963Z,13.77
2018-05-17T04:05:00.799Z,12.73
2018-05-17T04:07:29.080Z,13.03
2018-05-17T04:09:57.331Z,10.80
2018-05-17T04:12:26.347Z,10.07
2018-05-17T04:14:54.612Z,9.80
2018-05-17T04:17:23.631Z,10.50
2018-05-17T04:19:51.905Z,10.50
2018-05-17T04:22:20.161Z,10.87
2018-05-17T04:24:49.191Z,10.47
2018-05-17T04:27:17.446Z,9.60
2018-05-17T04:29:45.719Z,9.82
2018-05-17T04:32:14.726Z,8.38
2018-05-17T04:34:43.007Z,8.87
2018-05-17T04:37:12.022Z,8.17
2018-05-17T04:39:40.275Z,7.45
2018-05-17T04:42:09.311Z,7.63
2018-05-17T04:44:37.563Z,8.17
2018-05-17T04:47:06.682Z,8.73
2018-05-17T04:49:34.902Z,8.40
2018-05-17T04:52:03.172Z,8.77
2018-05-17T04:54:31.464Z,8.20
2018-05-17T04:56:59.727Z,8.80
2018-05-17T04:59:27.981Z,7.80
2018-05-17T05:01:56.242Z,6.97
2018-05-17T05:04:24.502Z,7.10
2018-05-17T05:06:52.766Z,6.97
2018-05-17T05:09:21.077Z,7.27
2018-05-17T05:11:49.266Z,6.60
2018-05-17T05:14:17.554Z,6.40
2018-05-17T05:16:45.791Z,6.30
2018-05-17T05:19:14.047Z,5.27
2018-05-17T05:21:42.298Z,5.43
2018-05-17T05:24:10.563Z,5.20
2018-05-17T05:26:39.591Z,4.70
2018-05-17T05:29:07.847Z,4.33
2018-05-17T05:31:36.283Z,3.77
2018-05-17T05:34:04.434Z,4.07
2018-05-17T05:36:32.691Z,3.90
2018-05-17T05:39:00.942Z,3.90
2018-05-17T05:41:29.209Z,4.03
2018-05-17T05:43:57.472Z,3.97
2018-05-17T05:46:25.720Z,4.07
2018-05-17T05:48:54.062Z,4.57
2018-05-17T05:51:22.267Z,3.70
2018-05-17T05:53:51.375Z,3.47
2018-05-17T05:56:19.648Z,3.20
2018-05-17T05:58:48.753Z,3.80
2018-05-17T06:01:17.023Z,3.60
2018-05-17T06:03:46.039Z,3.08
2018-05-17T06:06:14.307Z,3.20
2018-05-17T06:08:43.323Z,3.10
2018-05-17T06:11:11.608Z,2.90
2018-05-17T06:13:39.859Z,2.80
2018-05-17T06:16:08.915Z,3.20
2018-05-17T06:18:37.165Z,3.23
2018-05-17T06:21:05.420Z,2.78
2018-05-17T06:23:34.499Z,3.13
2018-05-17T06:26:02.768Z,2.73
2018-05-17T06:28:31.034Z,2.87
2018-05-17T06:30:59.283Z,2.83
2018-05-17T06:33:27.543Z,2.50
2018-05-17T06:35:56.571Z,2.47
2018-05-17T06:38:24.836Z,2.90
2018-05-17T06:40:53.097Z,2.90
2018-05-17T06:43:22.118Z,2.83
2018-05-17T06:45:50.375Z,2.77
2018-05-17T06:48:19.400Z,2.50
2018-05-17T06:50:47.655Z,2.60
2018-05-17T06:53:16.691Z,2.77
2018-05-17T06:55:44.944Z,2.90
2018-05-17T06:58:13.359Z,3.17
2018-05-17T07:00:41.710Z,3.40
2018-05-17T07:03:09.872Z,2.90
2018-05-17T07:05:40.153Z,3.30
2018-05-17T07:08:08.419Z,3.33
2018-05-17T07:10:36.686Z,2.80
2018-05-17T07:13:04.951Z,2.90
2018-05-17T07:15:33.984Z,2.63
2018-05-17T07:18:02.366Z,2.70
2018-05-17T07:20:31.255Z,2.50
2018-05-17T07:22:59.525Z,2.53
2018-05-17T07:25:27.773Z,2.77
2018-05-17T07:27:56.800Z,2.50
2018-05-17T07:30:25.052Z,2.60
2018-05-17T07:32:54.084Z,2.80
2018-05-17T07:35:22.339Z,2.50
2018-05-17T07:37:51.366Z,2.30
2018-05-17T07:40:20.483Z,2.28
2018-05-17T07:42:48.748Z,2.40
2018-05-17T07:45:17.007Z,2.20
2018-05-17T07:47:45.270Z,2.33
2018-05-17T07:50:13.684Z,2.17
2018-05-17T07:52:41.980Z,1.90
2018-05-17T07:55:10.202Z,1.90
2018-05-17T07:57:38.474Z,2.07
2018-05-17T08:00:06.746Z,2.40
2018-05-17T08:02:35.003Z,2.10
2018-05-17T08:05:03.258Z,2.10
2018-05-17T08:07:31.532Z,2.00
2018-05-17T08:10:00.573Z,2.05
2018-05-17T08:12:28.831Z,2.10
2018-05-17T08:14:57.080Z,2.17
2018-05-17T08:17:26.106Z,1.70
2018-05-17T08:19:54.371Z,2.22
2018-05-17T08:22:23.381Z,2.20
2018-05-17T08:24:51.647Z,2.60
2018-05-17T08:27:19.898Z,2.20
2018-05-17T08:29:48.167Z,2.30
2018-05-17T08:32:16.483Z,2.70
2018-05-17T08:34:45.507Z,2.70
2018-05-17T08:37:13.758Z,2.60
2018-05-17T08:39:43.112Z,2.47
2018-05-17T08:42:11.364Z,2.83
2018-05-17T08:44:39.632Z,2.30
2018-05-17T08:47:08.656Z,2.60
2018-05-17T08:49:36.929Z,2.53
2018-05-17T08:52:05.175Z,2.87
2018-05-17T08:54:33.438Z,3.00
2018-05-17T08:57:01.694Z,2.90
2018-05-17T08:59:29.960Z,2.70
2018-05-17T09:01:58.214Z,2.37
2018-05-17T09:04:27.234Z,2.80
2018-05-17T09:06:55.486Z,2.50
2018-05-17T09:09:24.528Z,2.87
2018-05-17T09:11:52.780Z,2.80
2018-05-17T09:14:21.052Z,2.83
2018-05-17T09:16:49.302Z,3.03
2018-05-17T09:19:17.574Z,3.00
2018-05-17T09:21:45.852Z,2.90
2018-05-17T09:24:14.119Z,3.17
2018-05-17T09:26:42.376Z,3.20
2018-05-17T09:29:10.697Z,3.00
2018-05-17T09:31:38.888Z,2.93
2018-05-17T09:34:07.152Z,2.90
2018-05-17T09:36:35.407Z,2.87
2018-05-17T09:39:03.676Z,3.10
2018-05-17T09:41:31.967Z,3.30
2018-05-17T09:44:00.962Z,3.40
2018-05-17T09:46:29.211Z,3.07
2018-05-17T09:48:58.240Z,4.00
2018-05-17T09:51:26.770Z,3.07
2018-05-17T09:53:55.030Z,3.10
2018-05-17T09:56:23.283Z,3.43
2018-05-17T09:58:51.571Z,4.35
2018-05-17T10:01:19.828Z,4.60
2018-05-17T10:03:48.099Z,5.47
2018-05-17T10:06:17.129Z,5.70
2018-05-17T10:08:45.379Z,6.20
2018-05-17T10:11:13.659Z,5.30
2018-05-17T10:13:41.915Z,5.10
2018-05-17T10:16:10.176Z,5.67
2018-05-17T10:18:38.432Z,5.43
2018-05-17T10:21:06.695Z,5.00
2018-05-17T10:23:34.947Z,4.60
2018-05-17T10:26:03.984Z,4.93
2018-05-17T10:28:32.238Z,4.80
2018-05-17T10:31:01.278Z,5.43
2018-05-17T10:33:29.524Z,5.07
2018-05-17T10:35:57.923Z,4.53
2018-05-17T10:38:26.174Z,4.90
2018-05-17T10:40:55.203Z,4.47
2018-05-17T10:43:23.519Z,4.70
2018-05-17T10:45:52.478Z,4.87
2018-05-17T10:48:20.730Z,4.87
2018-05-17T10:50:49.762Z,5.00
2018-05-17T10:53:18.018Z,4.17
2018-05-17T10:55:46.290Z,4.00
2018-05-17T10:58:15.315Z,4.20
2018-05-17T11:00:43.584Z,3.90
2018-05-17T11:03:11.840Z,4.00
2018-05-17T11:05:40.871Z,3.90
2018-05-17T11:08:09.126Z,4.03
2018-05-17T11:10:38.156Z,4.13
2018-05-17T11:13:06.406Z,4.27
2018-05-17T11:15:34.667Z,3.93
2018-05-17T11:18:02.921Z,3.87
2018-05-17T11:20:31.178Z,3.70
2018-05-17T11:22:59.428Z,3.50
2018-05-17T11:25:28.459Z,3.60
2018-05-17T11:27:57.674Z,3.74
2018-05-17T11:30:25.934Z,3.57
2018-05-17T11:32:54.186Z,3.50
2018-05-17T11:35:23.216Z,3.03
2018-05-17T11:37:51.470Z,3.13
2018-05-17T11:40:19.719Z,3.27
2018-05-17T11:42:47.995Z,3.60
2018-05-17T11:45:17.887Z,3.95
2018-05-17T11:47:46.176Z,3.80
2018-05-17T11:50:14.402Z,4.03
2018-05-17T11:52:43.430Z,4.20
2018-05-17T11:55:11.682Z,4.07
2018-05-17T11:57:40.710Z,4.00
2018-05-17T12:00:08.959Z,4.20
2018-05-17T12:02:38.013Z,3.90
2018-05-17T12:05:06.256Z,3.83
2018-05-17T12:07:34.524Z,3.73
2018-05-17T12:10:03.538Z,3.90
2018-05-17T12:12:31.799Z,4.53
2018-05-17T12:15:00.065Z,3.73
2018-05-17T12:17:29.099Z,3.70
2018-05-17T12:19:57.354Z,3.20
2018-05-17T12:22:26.385Z,3.50
2018-05-17T12:24:54.638Z,3.43
2018-05-17T12:27:22.905Z,3.72
2018-05-17T12:29:51.208Z,3.97
2018-05-17T12:32:19.474Z,3.93
2018-05-17T12:34:48.504Z,3.70
2018-05-17T12:37:16.804Z,3.63
2018-05-17T12:39:45.027Z,3.13
2018-05-17T12:42:14.054Z,3.00
2018-05-17T12:44:42.301Z,3.20
2018-05-17T12:47:11.321Z,3.33
2018-05-17T12:49:39.578Z,3.60
2018-05-17T12:52:09.843Z,3.30
2018-05-17T12:54:38.095Z,3.40
2018-05-17T12:57:07.123Z,3.07
2018-05-17T12:59:35.376Z,3.57
2018-05-17T13:02:03.641Z,3.62
2018-05-17T13:04:32.658Z,4.00
2018-05-17T13:07:00.925Z,4.07
2018-05-17T13:09:29.939Z,3.90
2018-05-17T13:11:58.203Z,4.10
2018-05-17T13:14:27.219Z,3.90
2018-05-17T13:16:55.491Z,4.03
2018-05-17T13:19:23.743Z,4.37
2018-05-17T13:24:51.511Z,5.43
2018-05-17T13:27:19.743Z,6.37
2018-05-17T13:29:47.987Z,5.20
2018-05-17T13:32:17.024Z,4.55
2018-05-17T13:34:45.291Z,5.00
2018-05-17T13:37:13.612Z,4.90
2018-05-17T13:39:41.819Z,4.90
2018-05-17T13:42:10.083Z,4.67
2018-05-17T13:44:38.334Z,4.70
2018-05-17T13:47:06.599Z,4.90
2018-05-17T13:49:34.858Z,4.53
2018-05-17T13:52:03.883Z,4.60
2018-05-17T13:54:32.150Z,4.87
2018-05-17T13:57:00.415Z,4.80
2018-05-17T13:59:29.435Z,5.10
2018-05-17T14:01:57.700Z,5.63
2018-05-17T14:04:26.727Z,5.90
2018-05-17T14:06:54.995Z,5.87
2018-05-17T14:09:23.250Z,5.50
2018-05-17T14:11:52.283Z,4.78
2018-05-17T14:14:20.555Z,5.03
2018-05-17T14:16:48.792Z,5.60
2018-05-17T14:19:17.058Z,5.90
2018-05-17T14:21:45.321Z,5.20
2018-05-17T14:24:13.584Z,5.72
2018-05-17T14:26:42.547Z,6.50
2018-05-17T14:29:11.580Z,5.37
2018-05-17T14:31:39.826Z,5.57
2018-05-17T14:34:08.858Z,5.93
2018-05-17T14:36:37.108Z,5.90
2018-05-17T14:39:06.940Z,6.33
2018-05-17T14:41:35.191Z,6.60
2018-05-17T14:44:04.223Z,6.50
2018-05-17T14:46:32.475Z,4.00
2018-05-17T14:49:01.500Z,2.30
2018-05-17T14:51:29.749Z,2.13
2018-05-17T14:53:58.777Z,2.13
2018-05-17T14:56:27.043Z,2.20
2018-05-17T14:58:56.536Z,2.60
2018-05-17T15:01:25.546Z,2.80
2018-05-17T15:03:54.567Z,3.28
2018-05-17T15:06:22.836Z,3.50
2018-05-17T15:08:51.114Z,3.37
2018-05-17T15:11:20.123Z,3.97
2018-05-17T15:13:48.384Z,4.47
2018-05-17T15:16:17.403Z,4.05
2018-05-17T15:18:45.667Z,4.17
2018-05-17T15:21:13.920Z,4.17
2018-05-17T15:23:42.186Z,4.10
2018-05-17T15:26:10.448Z,3.90
2018-05-17T15:28:38.707Z,3.70
2018-05-17T15:31:06.962Z,4.40
2018-05-17T15:33:35.991Z,4.20
2018-05-17T15:36:04.243Z,4.00
2018-05-17T15:38:33.277Z,3.20
2018-05-17T15:41:01.522Z,3.07
2018-05-17T15:43:30.554Z,3.00
2018-05-17T15:45:58.825Z,3.37
2018-05-17T15:48:27.099Z,3.00
2018-05-17T15:50:55.360Z,2.80
2018-05-17T15:53:23.622Z,2.80
2018-05-17T15:55:52.663Z,3.20
2018-05-17T15:58:20.911Z,3.33
2018-05-17T16:00:49.944Z,3.25
2018-05-17T16:03:19.064Z,3.03
2018-05-17T16:05:47.326Z,2.93
2018-05-17T16:08:15.578Z,3.57
2018-05-17T16:10:43.843Z,4.00
2018-05-17T16:13:13.419Z,3.87
2018-05-17T16:15:41.752Z,3.73
2018-05-17T16:18:09.972Z,3.47
2018-05-17T16:20:38.245Z,3.60
2018-05-17T16:23:06.517Z,3.83
2018-05-17T16:25:34.794Z,9.07
2018-05-17T16:28:03.043Z,5.07
2018-05-17T16:30:32.081Z,4.83
2018-05-17T16:33:00.348Z,4.90
2018-05-17T16:35:28.624Z,3.93
2018-05-17T16:37:56.895Z,4.20
2018-05-17T16:40:25.163Z,3.80
2018-05-17T16:42:54.188Z,3.50
2018-05-17T16:45:22.453Z,3.30
2018-05-17T16:47:51.477Z,3.63
2018-05-17T16:50:19.727Z,3.50
2018-05-17T16:52:48.793Z,4.23
2018-05-17T16:55:18.272Z,4.10
2018-05-17T16:57:46.559Z,3.20
2018-05-17T17:00:14.819Z,3.72
2018-05-17T17:02:43.846Z,3.50
2018-05-17T17:05:12.201Z,3.70
2018-05-17T17:07:40.359Z,5.47
2018-05-17T17:10:08.625Z,6.10
2018-05-17T17:12:37.643Z,5.03
2018-05-17T17:15:05.904Z,6.53
2018-05-17T17:17:34.926Z,4.80
2018-05-17T17:20:03.179Z,4.80
2018-05-17T17:22:31.448Z,3.63
2018-05-17T17:24:59.720Z,3.73
2018-05-17T17:27:27.982Z,3.40
2018-05-17T17:29:56.235Z,4.10
2018-05-17T17:32:24.495Z,3.03
2018-05-17T17:34:53.518Z,3.40
2018-05-17T17:37:21.778Z,3.20
2018-05-17T17:39:50.042Z,3.20
2018-05-17T17:42:19.060Z,3.70
2018-05-17T17:44:47.327Z,2.92
2018-05-17T17:47:16.247Z,2.97
2018-05-17T17:49:45.343Z,2.93
2018-05-17T17:52:13.603Z,3.00
2018-05-17T17:54:42.628Z,2.58
2018-05-17T17:57:10.898Z,2.77
2018-05-17T17:59:39.154Z,11.20
2018-05-17T18:02:08.176Z,3.10
2018-05-17T18:04:36.443Z,2.90
2018-05-17T18:07:04.716Z,3.30
2018-05-17T18:09:33.733Z,2.63
2018-05-17T18:12:04.006Z,2.90
2018-05-17T18:14:32.272Z,2.83
2018-05-17T18:17:00.538Z,3.13
2018-05-17T18:19:29.607Z,4.53
2018-05-17T18:21:58.644Z,4.47
2018-05-17T18:24:26.927Z,4.90
2018-05-17T18:26:55.203Z,3.50
2018-05-17T18:29:23.463Z,3.50
2018-05-17T18:31:51.726Z,3.67
2018-05-17T18:34:19.967Z,3.83
2018-05-17T18:36:48.286Z,3.90
2018-05-17T18:39:17.277Z,4.70
2018-05-17T18:41:45.523Z,4.10
2018-05-17T18:44:13.771Z,3.90
2018-05-17T18:46:42.031Z,3.90
2018-05-17T18:49:10.287Z,4.10
2018-05-17T18:51:38.539Z,7.13
2018-05-17T18:54:06.787Z,4.40
2018-05-17T18:56:35.050Z,4.37
2018-05-17T18:59:03.299Z,4.20
2018-05-17T19:01:31.609Z,4.63
2018-05-17T19:03:59.808Z,5.43
2018-05-17T19:06:28.067Z,5.40
2018-05-17T19:08:56.319Z,4.70
2018-05-17T19:11:24.580Z,4.70
2018-05-17T19:13:52.831Z,5.20
2018-05-17T19:16:21.098Z,5.23
2018-05-17T19:18:49.379Z,4.50
2018-05-17T19:21:17.634Z,5.20
2018-05-17T19:23:45.896Z,5.00
2018-05-17T19:26:14.153Z,5.43
2018-05-17T19:28:42.486Z,5.20
2018-05-17T19:31:10.652Z,5.10
2018-05-17T19:33:38.969Z,5.20
2018-05-17T19:36:07.231Z,5.75
2018-05-17T19:38:35.491Z,5.60
2018-05-17T19:41:03.743Z,5.90
2018-05-17T19:43:31.998Z,6.00
2018-05-17T19:46:00.347Z,5.37
2018-05-17T19:48:28.603Z,6.35
2018-05-17T19:50:57.476Z,5.82
2018-05-17T19:53:25.734Z,6.30
2018-05-17T19:55:53.987Z,6.43
2018-05-17T19:58:22.256Z,6.97
2018-05-17T20:00:50.508Z,6.40
2018-05-17T20:03:18.758Z,7.07
2018-05-17T20:05:47.246Z,7.73
2018-05-17T20:08:15.492Z,7.93
2018-05-17T20:10:43.735Z,8.10
2018-05-17T20:13:11.995Z,8.13
2018-05-17T20:15:41.013Z,7.95
2018-05-17T20:18:09.423Z,8.10
2018-05-17T20:20:37.675Z,7.40
2018-05-17T20:23:05.929Z,8.07
2018-05-17T20:25:34.182Z,7.97
2018-05-17T20:28:02.447Z,9.33
2018-05-17T20:30:30.704Z,9.57
2018-05-17T20:32:58.965Z,8.47
2018-05-17T20:35:27.206Z,8.03
2018-05-17T20:37:55.470Z,9.47
2018-05-17T20:40:23.719Z,9.95
2018-05-17T20:42:52.579Z,9.75
2018-05-17T20:45:20.925Z,10.93
2018-05-17T20:47:49.199Z,11.80
2018-05-17T20:50:17.464Z,11.67
2018-05-17T20:52:45.735Z,11.13
2018-05-17T20:55:14.027Z,11.03
2018-05-17T20:57:42.307Z,10.77
2018-05-17T21:00:10.563Z,10.10
2018-05-17T21:02:38.845Z,9.27
2018-05-17T21:05:07.103Z,10.70
2018-05-17T21:07:35.373Z,11.00
2018-05-17T21:10:03.631Z,11.55
2018-05-17T21:12:31.891Z,12.97
2018-05-17T21:15:00.153Z,12.90
2018-05-17T21:17:28.421Z,13.20
2018-05-17T21:19:56.674Z,13.90
2018-05-17T21:22:24.931Z,12.67
2018-05-17T21:24:53.195Z,12.73
2018-05-17T21:27:21.454Z,11.67
2018-05-17T21:29:49.719Z,11.63
2018-05-17T21:32:17.995Z,12.13
2018-05-17T21:34:46.267Z,13.47
2018-05-17T21:37:14.522Z,13.13
2018-05-17T21:39:42.800Z,13.37
2018-05-17T21:42:11.035Z,11.70
2018-05-17T21:44:39.309Z,9.93
2018-05-17T21:47:07.627Z,11.07
2018-05-17T21:49:35.895Z,11.33
2018-05-17T21:52:04.183Z,11.30
2018-05-17T21:54:33.011Z,11.45
2018-05-17T21:57:01.261Z,12.77
2018-05-17T21:59:29.526Z,14.60
2018-05-17T22:01:57.783Z,15.37
2018-05-17T22:04:26.079Z,15.60
2018-05-17T22:06:54.330Z,17.07
2018-05-17T22:09:22.595Z,14.23
2018-05-17T22:11:50.846Z,19.07
2018-05-17T22:14:19.117Z,15.87
2018-05-17T22:16:47.374Z,31.03
2018-05-17T22:19:15.646Z,20.50
2018-05-17T22:21:43.895Z,21.83
2018-05-17T22:24:12.237Z,24.57
2018-05-17T22:26:40.501Z,23.30
2018-05-17T22:29:08.758Z,21.67
2018-05-17T22:31:37.022Z,21.23
2018-05-17T22:34:05.271Z,23.33
2018-05-17T22:36:33.539Z,24.13
2018-05-17T22:39:01.807Z,26.13
2018-05-17T22:41:30.080Z,25.90
2018-05-17T22:43:58.327Z,25.03
2018-05-17T22:46:26.603Z,24.67
2018-05-17T22:48:54.872Z,25.73
2018-05-17T22:51:23.127Z,27.83
2018-05-17T22:53:51.382Z,24.03
2018-05-17T22:56:37.266Z,26.43
2018-05-17T22:59:05.524Z,27.23
2018-05-17T23:01:33.786Z,28.60
2018-05-17T23:04:02.038Z,27.87
2018-05-17T23:06:30.313Z,30.50
2018-05-17T23:08:58.566Z,31.57
2018-05-17T23:11:26.830Z,32.13
2018-05-17T23:13:55.091Z,35.47
2018-05-17T23:16:23.354Z,44.10
2018-05-17T23:18:51.625Z,54.37
2018-05-17T23:21:20.193Z,61.70
2018-05-17T23:23:48.523Z,62.57
2018-05-17T23:26:16.776Z,61.60
2018-05-17T23:28:45.819Z,63.13
2018-05-17T23:31:14.082Z,63.33
2018-05-17T23:33:42.344Z,62.30
2018-05-17T23:36:10.611Z,59.80
2018-05-17T23:38:38.867Z,61.30
2018-05-17T23:41:24.594Z,61.77
2018-05-17T23:43:52.844Z,56.28
2018-05-17T23:46:21.110Z,55.93
2018-05-17T23:48:49.362Z,53.13
2018-05-17T23:51:17.627Z,44.57
2018-05-17T23:53:45.966Z,42.53
2018-05-17T23:56:14.227Z,39.27
2018-05-17T23:58:42.495Z,38.33
